Weather at Skyqueen Airport

Public forecast

Using degrees Fahrenheit for public forecast. Weather courtesy of forecast.io.

Closest aviation weather report (METAR) to Skyqueen Airport

Closest report is Chehalis Centralia Airport, 3.9 nm (7.2 km) SW.

2024/07/20 18:35 (retrieved 17 minutes ago)

KCLS 201835Z AUTO VRB04KT 10SM CLR 25/15 A3013 RMK AO2

Closest aviation forecast (TAF) to Skyqueen Airport

Closest forecast is Olympia Regional Airport, 15.1 nm (27.9 km) N.

2024/07/20 18:28 (retrieved 24 minutes ago)

TAF KOLM 201726Z 2018/2118 35006KT P6SM SKC FM202200 03006KT P6SM SKC FM210900 19003KT P6SM SKC FM211200 21001KT P6SM SCT025